Skip Navigation LinksHome page > Weather > Current weather Skip Navigation Links

Current Weather

Luke AFB, Glendale, Ariz.

For information only: do not use for flight planning or navigation.
Latest weather
Observation time Wednesday, January 26, 2022 9:58 PM MST
Local time Wednesday, January 26, 2022 10:10 PM MST
Flight conditions Visual Meteorological Conditions
Winds
Wind speed calm
Visibility 10 mi.
Sky condition
Ceiling unlimited
Sky clear
Temperature 50°F
Dewpoint 26°F
Altimeter 30.09 in.Hg
Derived measurements
Relative humidity 39%
Wind chill 50°F
Density altitude 359 ft.
Sea-level pressure 30.09 in.Hg
Remarks
Fully automated report.
System requires maintenance.
Automated weather observing station with precipitation discriminator.
METAR KLUF 270458Z AUTO 00000KT 10SM CLR 10/M03 A3009 RMK AO2 SLP188 T00991034 $

Settings

Location code

InnerDrive.Weather 4.0.6770.0 Release CLR 4.0.30319.42000
Copyright ©2018 Inner Drive Technology. All rights reserved. Portions Copyright ©1986-2018 David Braverman.

Find weather

Site navigation


Skip Navigation Links

Place info

Page info

PayPal - The safer, easier way to pay online!

Return home.

Copyright ©2022 Inner Drive Technology. Purveyors of fine, hand-crafted computer software. Page printed 2022-01-27T05:10:33 UTC.